Time;durP1;ratioP1;P1;durP2;ratioP2;P2;SDS_P1;SDS_P2;PMS_P1;PMS_P2;Temp;Humidity;BMP_temperature;BMP_pressure;BME280_temperature;BME280_humidity;BME280_pressure;Samples;Min_cycle;Max_cycle;Signal;HPM_P1;HPM_P2
2022/09/22 00:01:02;;;;;;;;;;;12.90;79.60;;;;;;5070217;28;19924;-78
2022/09/22 00:03:29;;;;;;;;;;;12.80;80.10;;;;;;5082176;28;20850;-78
2022/09/22 00:06:05;;;;;;;;;;;12.70;80.70;;;;;;5065937;28;19917;-78
2022/09/22 00:08:31;;;;;;;;;;;12.70;81.00;;;;;;5046995;28;20416;-78
2022/09/22 00:10:58;;;;;;;;;;;12.70;80.80;;;;;;5057816;28;20582;-79
2022/09/22 00:13:24;;;;;;;;;;;12.60;81.40;;;;;;5051563;28;20018;-77
2022/09/22 00:15:49;;;;;;;;;;;12.50;81.60;;;;;;5052722;28;19923;-78
2022/09/22 00:18:15;;;;;;;;;;;12.60;81.60;;;;;;5051051;28;20007;-79
2022/09/22 00:20:40;;;;;;;;;;;12.60;81.90;;;;;;5089142;27;19921;-78
2022/09/22 00:23:06;;;;;;;;;;;12.50;82.20;;;;;;5060007;28;20343;-78
2022/09/22 00:25:32;;;;;;;;;;;12.40;82.70;;;;;;5066439;28;19916;-78
2022/09/22 00:27:57;;;;;;;;;;;12.50;82.50;;;;;;5062340;28;19917;-78
2022/09/22 00:30:23;;;;;;;;;;;12.50;82.30;;;;;;5052301;28;20294;-78
2022/09/22 00:32:49;;;;;;;;;;;12.40;82.80;;;;;;5085184;28;19957;-78
2022/09/22 00:35:14;;;;;;;;;;;12.30;83.30;;;;;;5080202;28;19928;-78
2022/09/22 00:37:40;;;;;;;;;;;12.30;84.10;;;;;;5065145;28;20368;-78
2022/09/22 00:40:06;;;;;;;;;;;12.20;84.00;;;;;;5079395;28;20451;-78
2022/09/22 00:42:31;;;;;;;;;;;12.30;83.40;;;;;;5057032;28;19921;-78
2022/09/22 00:44:57;;;;;;;;;;;12.30;83.70;;;;;;5073651;28;19917;-78
2022/09/22 00:47:25;;;;;;;;;;;12.30;83.90;;;;;;5057612;28;20956;-79
2022/09/22 00:50:11;;;;;;;;;;;12.20;84.50;;;;;;5071828;28;20028;-78
2022/09/22 00:52:45;;;;;;;;;;;12.10;85.00;;;;;;5060258;28;19916;-78
2022/09/22 00:55:12;;;;;;;;;;;12.10;85.20;;;;;;5064205;28;19924;-78
2022/09/22 00:57:38;;;;;;;;;;;12.00;85.50;;;;;;5054989;28;19916;-78
2022/09/22 01:00:06;;;;;;;;;;;12.00;85.50;;;;;;5054814;28;19932;-78
2022/09/22 01:02:31;;;;;;;;;;;12.00;85.30;;;;;;5059767;28;19928;-79
2022/09/22 01:04:57;;;;;;;;;;;12.00;86.00;;;;;;5061599;28;19915;-78
2022/09/22 01:07:25;;;;;;;;;;;12.00;85.60;;;;;;5059893;28;19924;-78
2022/09/22 01:09:51;;;;;;;;;;;11.90;85.80;;;;;;5072810;28;19916;-78
2022/09/22 01:12:18;;;;;;;;;;;11.80;86.50;;;;;;5076971;28;19920;-78
2022/09/22 01:14:53;;;;;;;;;;;11.80;86.60;;;;;;5058588;28;20402;-78
2022/09/22 01:17:38;;;;;;;;;;;11.90;86.50;;;;;;5051322;28;19921;-78
2022/09/22 01:20:03;;;;;;;;;;;11.80;87.10;;;;;;5045938;28;20408;-81
2022/09/22 01:22:48;;;;;;;;;;;11.70;87.10;;;;;;5050480;28;19917;-77
2022/09/22 01:25:19;;;;;;;;;;;11.70;87.30;;;;;;5060942;28;19920;-79
2022/09/22 01:28:14;;;;;;;;;;;11.70;87.50;;;;;;5054071;28;19955;-77
2022/09/22 01:30:46;;;;;;;;;;;11.70;87.70;;;;;;5041577;28;20011;-78
2022/09/22 01:33:28;;;;;;;;;;;11.60;87.80;;;;;;5038896;28;19916;-78
2022/09/22 01:35:56;;;;;;;;;;;11.60;88.10;;;;;;5040168;28;20031;-78
2022/09/22 01:38:25;;;;;;;;;;;11.50;88.60;;;;;;5039262;28;19916;-79
2022/09/22 01:40:50;;;;;;;;;;;11.40;89.20;;;;;;5040810;28;20437;-78
2022/09/22 01:43:25;;;;;;;;;;;11.60;88.60;;;;;;5038812;28;19924;-78
2022/09/22 01:45:51;;;;;;;;;;;11.50;88.80;;;;;;5039441;28;19936;-78
2022/09/22 01:48:18;;;;;;;;;;;11.50;89.10;;;;;;5041412;28;20484;-78
2022/09/22 01:50:48;;;;;;;;;;;11.50;89.40;;;;;;5038656;28;19913;-79
2022/09/22 01:53:16;;;;;;;;;;;11.40;90.00;;;;;;5023869;28;19916;-78
2022/09/22 01:55:44;;;;;;;;;;;11.40;90.10;;;;;;5040904;28;19924;-78
2022/09/22 01:58:14;;;;;;;;;;;11.20;90.50;;;;;;5040338;28;20004;-78
2022/09/22 02:00:43;;;;;;;;;;;11.20;90.60;;;;;;5040610;28;19932;-78
2022/09/22 02:03:11;;;;;;;;;;;11.20;90.70;;;;;;5040007;28;20412;-78
2022/09/22 02:06:12;;;;;;;;;;;11.10;90.90;;;;;;5039165;28;19916;-78
2022/09/22 02:08:46;;;;;;;;;;;11.10;91.00;;;;;;5021890;28;21969;-78
2022/09/22 02:11:14;;;;;;;;;;;11.10;91.20;;;;;;5013297;28;19917;-78
2022/09/22 02:13:40;;;;;;;;;;;11.00;91.40;;;;;;5008160;28;19917;-78
2022/09/22 02:16:05;;;;;;;;;;;11.10;91.30;;;;;;5003984;28;20406;-78
2022/09/22 02:18:44;;;;;;;;;;;11.00;91.60;;;;;;5018772;28;19917;-80
2022/09/22 02:21:10;;;;;;;;;;;11.00;91.60;;;;;;5028502;28;19944;-78
2022/09/22 02:23:36;;;;;;;;;;;11.10;91.60;;;;;;5020019;28;20322;-78
2022/09/22 02:26:03;;;;;;;;;;;11.10;91.70;;;;;;5020182;28;19917;-78
2022/09/22 02:28:31;;;;;;;;;;;11.00;91.70;;;;;;5017248;28;19968;-77
2022/09/22 02:30:58;;;;;;;;;;;11.00;91.90;;;;;;5012789;28;19917;-78
2022/09/22 02:33:25;;;;;;;;;;;10.90;92.10;;;;;;5017195;28;19917;-77
2022/09/22 02:35:54;;;;;;;;;;;10.90;92.30;;;;;;5020933;28;20003;-78
2022/09/22 02:38:21;;;;;;;;;;;10.90;92.40;;;;;;5020438;28;19959;-78
2022/09/22 02:41:10;;;;;;;;;;;10.90;92.50;;;;;;5025232;28;20377;-78
2022/09/22 02:44:05;;;;;;;;;;;10.80;92.60;;;;;;5065395;28;20024;-77
2022/09/22 02:46:37;;;;;;;;;;;10.80;92.90;;;;;;5067066;28;19923;-77
2022/09/22 02:49:05;;;;;;;;;;;10.80;93.00;;;;;;5056232;28;19957;-80
2022/09/22 02:51:31;;;;;;;;;;;10.80;93.10;;;;;;5080477;28;19920;-80
2022/09/22 02:53:57;;;;;;;;;;;10.70;93.30;;;;;;5061780;28;20728;-78
2022/09/22 02:56:22;;;;;;;;;;;10.60;93.50;;;;;;5063057;28;19948;-78
2022/09/22 02:58:48;;;;;;;;;;;10.60;93.80;;;;;;5068266;28;19916;-78
2022/09/22 03:01:13;;;;;;;;;;;10.60;93.90;;;;;;5078897;28;19924;-80
2022/09/22 03:03:39;;;;;;;;;;;10.50;94.10;;;;;;5062900;28;20031;-80
2022/09/22 03:06:05;;;;;;;;;;;10.60;94.10;;;;;;5063897;28;20310;-80
2022/09/22 03:08:30;;;;;;;;;;;10.50;94.40;;;;;;5054929;28;19920;-78
2022/09/22 03:10:56;;;;;;;;;;;10.40;94.70;;;;;;5059716;28;19916;-78
2022/09/22 03:13:21;;;;;;;;;;;10.50;94.50;;;;;;5059799;28;19916;-81
2022/09/22 03:15:47;;;;;;;;;;;10.50;94.50;;;;;;5051680;28;20588;-80
2022/09/22 03:18:13;;;;;;;;;;;10.50;94.60;;;;;;5043792;28;19953;-80
2022/09/22 03:20:39;;;;;;;;;;;10.40;94.90;;;;;;5044044;28;19917;-78
2022/09/22 03:23:05;;;;;;;;;;;10.40;94.90;;;;;;5049450;28;20304;-78
2022/09/22 03:25:30;;;;;;;;;;;10.40;94.70;;;;;;5053628;28;19921;-78
2022/09/22 03:27:56;;;;;;;;;;;10.40;94.90;;;;;;5046607;28;19936;-77
2022/09/22 03:30:21;;;;;;;;;;;10.40;95.00;;;;;;5059434;28;19974;-78
2022/09/22 03:32:47;;;;;;;;;;;10.50;94.90;;;;;;5048995;28;19921;-78
2022/09/22 03:35:12;;;;;;;;;;;10.40;95.40;;;;;;5052390;28;19971;-78
2022/09/22 03:37:38;;;;;;;;;;;10.40;95.30;;;;;;5072727;28;19923;-79
2022/09/22 03:40:04;;;;;;;;;;;10.30;95.50;;;;;;5048531;28;19967;-78
2022/09/22 03:42:29;;;;;;;;;;;10.30;95.50;;;;;;5049662;28;19956;-77
2022/09/22 03:44:55;;;;;;;;;;;10.40;95.30;;;;;;5058335;28;19917;-77
2022/09/22 03:47:20;;;;;;;;;;;10.40;95.20;;;;;;5054929;28;19917;-79
2022/09/22 03:49:46;;;;;;;;;;;10.40;95.40;;;;;;5071242;28;20432;-80
2022/09/22 03:52:11;;;;;;;;;;;10.40;95.60;;;;;;5060291;28;19920;-80
2022/09/22 03:54:37;;;;;;;;;;;10.30;95.70;;;;;;5055675;28;19928;-80
2022/09/22 03:57:03;;;;;;;;;;;10.20;95.90;;;;;;5053634;28;19916;-80
2022/09/22 03:59:28;;;;;;;;;;;10.10;96.40;;;;;;5053099;28;19963;-80
2022/09/22 04:01:54;;;;;;;;;;;10.10;96.40;;;;;;5059319;28;19928;-80
2022/09/22 04:04:20;;;;;;;;;;;10.10;96.50;;;;;;5061511;28;19960;-79
2022/09/22 04:06:45;;;;;;;;;;;10.20;96.40;;;;;;5045231;28;19917;-80
2022/09/22 04:09:11;;;;;;;;;;;10.10;96.60;;;;;;5056422;28;20530;-79
2022/09/22 04:11:36;;;;;;;;;;;10.10;96.80;;;;;;5055148;28;19978;-79
2022/09/22 04:14:03;;;;;;;;;;;10.00;96.90;;;;;;5065558;28;19919;-80
2022/09/22 04:16:30;;;;;;;;;;;10.10;97.00;;;;;;5069196;28;20014;-80
2022/09/22 04:18:55;;;;;;;;;;;10.00;97.30;;;;;;5048163;28;20628;-80
2022/09/22 04:21:21;;;;;;;;;;;10.00;97.20;;;;;;5043655;28;19916;-79
2022/09/22 04:23:47;;;;;;;;;;;10.00;97.40;;;;;;5064024;28;20502;-80
2022/09/22 04:26:13;;;;;;;;;;;9.90;97.70;;;;;;5066025;28;19916;-79
2022/09/22 04:28:38;;;;;;;;;;;9.90;97.70;;;;;;5061827;28;20322;-80
2022/09/22 04:31:04;;;;;;;;;;;9.90;97.80;;;;;;5045229;28;19916;-79
2022/09/22 04:33:29;;;;;;;;;;;9.80;98.10;;;;;;5051039;28;20282;-79
2022/09/22 04:35:55;;;;;;;;;;;9.80;98.10;;;;;;5053641;28;19925;-80
2022/09/22 04:38:20;;;;;;;;;;;9.90;98.00;;;;;;5048713;28;19927;-80
2022/09/22 04:40:48;;;;;;;;;;;9.90;97.90;;;;;;5069656;28;19916;-80
2022/09/22 04:43:14;;;;;;;;;;;9.90;98.10;;;;;;5047967;28;19951;-79
2022/09/22 04:45:41;;;;;;;;;;;9.90;98.30;;;;;;5062856;28;20388;-79
2022/09/22 04:48:07;;;;;;;;;;;9.80;98.40;;;;;;5051002;28;20460;-79
2022/09/22 04:50:32;;;;;;;;;;;9.80;98.40;;;;;;5055249;28;20003;-80
2022/09/22 04:52:58;;;;;;;;;;;9.70;98.60;;;;;;5057411;28;19917;-80
2022/09/22 04:55:23;;;;;;;;;;;9.70;98.70;;;;;;5078250;28;19924;-80
2022/09/22 04:57:50;;;;;;;;;;;9.70;98.80;;;;;;5060112;28;19920;-80
2022/09/22 05:00:15;;;;;;;;;;;9.60;99.10;;;;;;5075642;28;20464;-79
2022/09/22 05:02:41;;;;;;;;;;;9.60;99.10;;;;;;5082565;28;19924;-80
2022/09/22 05:05:07;;;;;;;;;;;9.50;99.40;;;;;;5086601;28;20557;-80
2022/09/22 05:07:32;;;;;;;;;;;9.60;99.80;;;;;;5086106;28;19951;-80
2022/09/22 05:09:58;;;;;;;;;;;9.60;99.50;;;;;;5086203;28;19980;-79
2022/09/22 05:12:24;;;;;;;;;;;9.60;99.50;;;;;;5086077;28;19912;-79
2022/09/22 05:14:49;;;;;;;;;;;9.50;99.80;;;;;;5085870;28;19966;-79
2022/09/22 05:17:15;;;;;;;;;;;9.50;99.90;;;;;;5084081;28;19916;-75
2022/09/22 05:19:40;;;;;;;;;;;9.60;99.80;;;;;;5063109;28;19921;-76
2022/09/22 05:22:06;;;;;;;;;;;9.50;99.90;;;;;;5045819;28;19912;-77
2022/09/22 05:24:31;;;;;;;;;;;9.40;99.90;;;;;;5072398;28;19916;-78
2022/09/22 05:26:57;;;;;;;;;;;9.40;99.90;;;;;;5085848;28;20740;-78
2022/09/22 05:29:23;;;;;;;;;;;9.40;99.90;;;;;;5085280;28;19919;-78
2022/09/22 05:31:49;;;;;;;;;;;9.30;99.90;;;;;;5084077;28;19917;-78
2022/09/22 05:34:14;;;;;;;;;;;9.30;99.90;;;;;;5072164;28;19920;-78
2022/09/22 05:36:40;;;;;;;;;;;9.30;99.90;;;;;;5065355;28;19912;-79
2022/09/22 05:39:05;;;;;;;;;;;9.40;99.90;;;;;;5064843;28;20421;-79
2022/09/22 05:41:31;;;;;;;;;;;9.30;99.90;;;;;;5078588;28;19916;-79
2022/09/22 05:43:56;;;;;;;;;;;9.40;99.90;;;;;;5064243;28;19924;-79
2022/09/22 05:46:22;;;;;;;;;;;9.50;99.90;;;;;;5062747;28;19913;-80
2022/09/22 05:48:47;;;;;;;;;;;9.40;99.90;;;;;;5070310;28;19916;-79
2022/09/22 05:51:13;;;;;;;;;;;9.50;99.90;;;;;;5085789;28;19912;-79
2022/09/22 05:53:38;;;;;;;;;;;9.40;99.90;;;;;;5083654;28;19999;-79
2022/09/22 05:56:04;;;;;;;;;;;9.90;99.90;;;;;;5083881;28;20023;-79
2022/09/22 05:58:30;;;;;;;;;;;10.50;98.20;;;;;;5084603;28;19912;-79
2022/09/22 06:00:59;;;;;;;;;;;10.70;97.30;;;;;;5085344;28;19947;-79
2022/09/22 06:03:24;;;;;;;;;;;11.10;96.20;;;;;;5084772;28;19931;-79
2022/09/22 06:05:50;;;;;;;;;;;11.50;95.00;;;;;;5084891;28;19935;-80
2022/09/22 06:08:16;;;;;;;;;;;11.60;94.40;;;;;;5081721;28;19916;-80
2022/09/22 06:10:43;;;;;;;;;;;12.00;93.80;;;;;;5085027;28;19912;-80
2022/09/22 06:13:10;;;;;;;;;;;12.30;92.90;;;;;;5084949;28;19969;-81
2022/09/22 06:15:36;;;;;;;;;;;12.60;92.10;;;;;;5081626;28;20409;-78
2022/09/22 06:18:05;;;;;;;;;;;12.60;92.20;;;;;;5084885;28;19912;-81
2022/09/22 06:20:31;;;;;;;;;;;12.80;91.70;;;;;;5063572;28;20015;-79
2022/09/22 06:22:58;;;;;;;;;;;12.90;91.20;;;;;;5064571;28;20035;-80
2022/09/22 06:25:26;;;;;;;;;;;13.60;90.50;;;;;;5097520;27;20425;-81
2022/09/22 06:28:05;;;;;;;;;;;14.00;89.70;;;;;;5066807;28;20020;-78
2022/09/22 06:30:31;;;;;;;;;;;14.40;87.80;;;;;;5081330;28;19916;-80
2022/09/22 06:32:57;;;;;;;;;;;14.60;86.10;;;;;;5077294;28;19916;-81
2022/09/22 06:35:23;;;;;;;;;;;14.50;86.10;;;;;;5071744;28;19924;-79
2022/09/22 06:37:55;;;;;;;;;;;15.00;84.40;;;;;;5063276;28;19968;-80
2022/09/22 06:40:21;;;;;;;;;;;15.30;83.80;;;;;;5055141;28;19912;-80
2022/09/22 06:42:48;;;;;;;;;;;15.40;82.90;;;;;;5065142;28;19916;-80
2022/09/22 06:45:14;;;;;;;;;;;15.20;83.20;;;;;;5054498;28;20300;-80
2022/09/22 06:47:41;;;;;;;;;;;16.10;81.90;;;;;;5070266;28;19954;-80
2022/09/22 06:50:08;;;;;;;;;;;15.90;81.50;;;;;;5064689;28;20038;-82
2022/09/22 06:52:35;;;;;;;;;;;16.30;81.10;;;;;;5063871;28;19982;-80
2022/09/22 06:55:01;;;;;;;;;;;16.60;80.50;;;;;;5063895;28;19921;-81
2022/09/22 06:57:31;;;;;;;;;;;16.50;79.90;;;;;;5063780;28;19912;-81
2022/09/22 06:59:58;;;;;;;;;;;16.80;79.40;;;;;;5061641;28;19912;-80
2022/09/22 07:02:26;;;;;;;;;;;17.40;77.50;;;;;;5063741;28;19978;-81
2022/09/22 07:04:57;;;;;;;;;;;17.30;76.10;;;;;;5064082;28;19916;-82
2022/09/22 07:07:27;;;;;;;;;;;17.20;76.30;;;;;;5063796;28;19966;-80
2022/09/22 07:09:53;;;;;;;;;;;17.40;77.10;;;;;;5063910;28;19920;-81
2022/09/22 07:12:21;;;;;;;;;;;17.30;76.60;;;;;;5064109;28;19974;-81
2022/09/22 07:14:51;;;;;;;;;;;17.40;76.00;;;;;;5063831;28;19928;-82
2022/09/22 07:17:17;;;;;;;;;;;17.80;76.40;;;;;;5063856;28;19913;-81
2022/09/22 07:19:45;;;;;;;;;;;18.40;74.40;;;;;;5062256;28;19965;-81
2022/09/22 07:22:13;;;;;;;;;;;18.60;72.60;;;;;;5063671;28;19986;-79
2022/09/22 07:24:38;;;;;;;;;;;18.40;73.30;;;;;;5063765;28;19912;-81
2022/09/22 07:27:05;;;;;;;;;;;18.60;72.70;;;;;;5063416;28;20301;-81
2022/09/22 07:29:32;;;;;;;;;;;18.80;72.20;;;;;;5063860;28;19940;-81
2022/09/22 07:31:58;;;;;;;;;;;18.70;72.30;;;;;;5063711;28;19912;-82
2022/09/22 07:34:26;;;;;;;;;;;19.00;71.60;;;;;;5063343;28;19923;-80
2022/09/22 07:36:52;;;;;;;;;;;19.40;71.20;;;;;;5063234;28;19923;-81
2022/09/22 07:39:17;;;;;;;;;;;19.70;70.50;;;;;;5062693;28;19912;-81
2022/09/22 07:41:43;;;;;;;;;;;19.80;69.20;;;;;;5063390;28;19920;-81
2022/09/22 07:46:54;;;;;;;;;;;20.20;68.30;;;;;;5043352;28;19924;-80
2022/09/22 07:49:21;;;;;;;;;;;20.30;69.00;;;;;;5041586;28;19916;-80
2022/09/22 07:51:47;;;;;;;;;;;20.30;68.00;;;;;;5042812;28;19943;-81
2022/09/22 07:54:12;;;;;;;;;;;20.30;67.30;;;;;;5042933;28;19921;-80
2022/09/22 07:56:44;;;;;;;;;;;20.30;66.50;;;;;;5043237;28;19920;-80
2022/09/22 07:59:10;;;;;;;;;;;20.80;67.30;;;;;;5043170;28;19952;-80
2022/09/22 08:01:37;;;;;;;;;;;21.00;65.60;;;;;;5043040;28;19970;-81
2022/09/22 08:04:03;;;;;;;;;;;21.30;65.80;;;;;;5043108;28;19913;-81
2022/09/22 08:06:30;;;;;;;;;;;21.60;67.30;;;;;;5041367;28;19917;-81
2022/09/22 08:08:56;;;;;;;;;;;21.80;66.40;;;;;;5042406;28;19959;-81
2022/09/22 08:11:26;;;;;;;;;;;21.80;65.80;;;;;;5042693;28;20003;-80
2022/09/22 08:13:56;;;;;;;;;;;23.00;65.40;;;;;;5043028;28;20377;-81
2022/09/22 08:16:22;;;;;;;;;;;23.10;63.50;;;;;;5042727;28;19917;-81
2022/09/22 08:18:53;;;;;;;;;;;23.10;62.50;;;;;;5042875;28;19916;-81
2022/09/22 08:21:19;;;;;;;;;;;23.00;62.40;;;;;;5043150;28;20015;-81
2022/09/22 08:23:44;;;;;;;;;;;23.10;62.60;;;;;;5042557;28;20003;-81
2022/09/22 08:26:10;;;;;;;;;;;23.60;62.40;;;;;;5043439;28;19913;-80
2022/09/22 08:28:36;;;;;;;;;;;23.80;62.60;;;;;;5047085;28;19913;-81
2022/09/22 08:31:02;;;;;;;;;;;23.40;60.90;;;;;;5046579;28;19917;-81
2022/09/22 08:33:31;;;;;;;;;;;23.40;61.60;;;;;;5052558;28;19919;-80
2022/09/22 08:35:57;;;;;;;;;;;24.10;63.40;;;;;;5066609;28;19968;-81
2022/09/22 08:38:24;;;;;;;;;;;24.70;59.90;;;;;;5065537;28;19940;-81
2022/09/22 08:40:58;;;;;;;;;;;24.70;59.40;;;;;;5066493;28;19917;-81
2022/09/22 08:43:24;;;;;;;;;;;24.60;60.00;;;;;;5066729;28;19919;-80
2022/09/22 08:45:49;;;;;;;;;;;24.80;60.30;;;;;;5066533;28;20002;-81
2022/09/22 08:53:59;;;;;;;;;;;25.70;58.10;;;;;;5066297;28;19915;-80
2022/09/22 08:56:29;;;;;;;;;;;25.60;57.80;;;;;;5066526;28;19916;-81
2022/09/22 08:59:03;;;;;;;;;;;25.20;57.90;;;;;;5064986;28;19913;-80
2022/09/22 09:01:59;;;;;;;;;;;25.00;58.60;;;;;;5066067;28;20569;-80
2022/09/22 09:04:25;;;;;;;;;;;25.90;58.50;;;;;;5061313;28;19963;-81
2022/09/22 09:06:50;;;;;;;;;;;25.90;60.30;;;;;;5065651;28;20007;-82
2022/09/22 09:09:16;;;;;;;;;;;26.40;61.90;;;;;;5065662;28;19970;-81
2022/09/22 09:11:41;;;;;;;;;;;26.40;60.00;;;;;;5065659;28;19981;-81
2022/09/22 09:14:16;;;;;;;;;;;26.60;60.40;;;;;;5066058;28;19916;-81
2022/09/22 09:16:43;;;;;;;;;;;26.80;60.00;;;;;;5097881;28;19917;-81
2022/09/22 09:19:08;;;;;;;;;;;27.00;58.90;;;;;;5065633;28;20440;-81
2022/09/22 09:21:36;;;;;;;;;;;27.60;59.00;;;;;;5065646;28;19912;-80
2022/09/22 09:24:03;;;;;;;;;;;27.10;59.50;;;;;;5065837;28;19918;-81
2022/09/22 09:26:29;;;;;;;;;;;27.00;58.30;;;;;;5065920;28;20495;-81
2022/09/22 09:28:59;;;;;;;;;;;27.00;59.50;;;;;;5065452;28;19912;-81
2022/09/22 09:31:38;;;;;;;;;;;26.70;59.60;;;;;;5065070;28;20516;-81
2022/09/22 09:34:06;;;;;;;;;;;27.10;60.00;;;;;;5064618;28;19943;-81
2022/09/22 09:36:35;;;;;;;;;;;27.30;58.70;;;;;;5065069;28;19920;-81
2022/09/22 09:39:09;;;;;;;;;;;27.00;58.10;;;;;;5063184;28;19912;-81
2022/09/22 09:41:35;;;;;;;;;;;26.00;59.70;;;;;;5065620;28;20411;-81
2022/09/22 09:44:01;;;;;;;;;;;24.80;61.30;;;;;;5065390;28;19912;-81
2022/09/22 09:46:33;;;;;;;;;;;24.40;61.80;;;;;;5064891;28;20003;-82
2022/09/22 09:49:04;;;;;;;;;;;24.00;62.60;;;;;;5064914;28;20015;-82
2022/09/22 09:51:32;;;;;;;;;;;24.50;64.10;;;;;;5065307;28;19939;-81
2022/09/22 09:54:02;;;;;;;;;;;24.00;63.90;;;;;;5064915;28;19951;-81
2022/09/22 09:56:29;;;;;;;;;;;24.30;62.90;;;;;;5065605;28;19916;-81
2022/09/22 10:01:46;;;;;;;;;;;24.10;64.40;;;;;;5064143;28;20405;-81
2022/09/22 10:04:29;;;;;;;;;;;23.70;63.90;;;;;;5064250;28;20022;-82
2022/09/22 10:07:15;;;;;;;;;;;23.70;65.40;;;;;;5064578;28;19923;-81
2022/09/22 10:09:41;;;;;;;;;;;23.60;63.80;;;;;;5064746;28;19912;-81
2022/09/22 10:12:21;;;;;;;;;;;23.50;64.60;;;;;;5063244;28;19948;-82
2022/09/22 10:14:51;;;;;;;;;;;23.60;65.60;;;;;;5064234;28;19924;-80
2022/09/22 10:17:21;;;;;;;;;;;23.50;65.90;;;;;;5064258;28;20027;-81
2022/09/22 10:19:46;;;;;;;;;;;23.60;67.70;;;;;;5064326;28;19959;-81
2022/09/22 10:22:20;;;;;;;;;;;23.20;64.40;;;;;;5064061;28;19960;-81
2022/09/22 10:25:00;;;;;;;;;;;23.00;68.60;;;;;;5064492;28;19912;-81
2022/09/22 10:27:27;;;;;;;;;;;23.30;67.40;;;;;;5063980;28;19913;-81
2022/09/22 10:30:11;;;;;;;;;;;23.10;66.40;;;;;;5064100;28;20305;-81
2022/09/22 10:32:36;;;;;;;;;;;23.50;65.80;;;;;;5064579;28;19968;-81
2022/09/22 10:35:22;;;;;;;;;;;23.40;65.30;;;;;;5063938;28;20357;-81
2022/09/22 10:37:49;;;;;;;;;;;23.10;67.20;;;;;;5063555;28;20305;-81
2022/09/22 10:40:15;;;;;;;;;;;23.10;66.30;;;;;;5063497;28;20460;-81
2022/09/22 10:42:47;;;;;;;;;;;23.30;64.90;;;;;;5064231;28;20061;-81
2022/09/22 10:45:18;;;;;;;;;;;23.50;63.80;;;;;;5063977;28;20007;-79
2022/09/22 10:47:43;;;;;;;;;;;23.40;63.30;;;;;;5063647;28;19919;-81
2022/09/22 10:50:27;;;;;;;;;;;23.20;65.20;;;;;;5096791;28;19912;-81
2022/09/22 10:53:03;;;;;;;;;;;23.10;64.10;;;;;;5063840;28;19912;-81
2022/09/22 10:55:34;;;;;;;;;;;23.00;65.50;;;;;;5064135;28;19925;-81
2022/09/22 10:58:10;;;;;;;;;;;23.30;65.00;;;;;;5062253;28;20557;-81
2022/09/22 11:00:40;;;;;;;;;;;23.10;64.20;;;;;;5064177;28;19963;-81
2022/09/22 11:03:21;;;;;;;;;;;23.20;66.60;;;;;;5063572;28;20000;-81
2022/09/22 11:14:53;;;;;;;;;;;23.00;65.60;;;;;;5040283;28;19967;-81
2022/09/22 11:17:30;;;;;;;;;;;22.70;65.40;;;;;;5039912;28;20036;-81
2022/09/22 11:19:57;;;;;;;;;;;23.10;67.00;;;;;;5040552;28;19920;-81
2022/09/22 11:22:23;;;;;;;;;;;23.10;62.70;;;;;;5040577;28;19912;-80
2022/09/22 11:24:51;;;;;;;;;;;23.00;61.10;;;;;;5041218;28;19913;-80
2022/09/22 11:27:27;;;;;;;;;;;23.10;62.80;;;;;;5040371;28;20699;-81
2022/09/22 11:30:11;;;;;;;;;;;23.10;61.40;;;;;;5057056;28;19935;-81
2022/09/22 11:32:56;;;;;;;;;;;23.00;59.90;;;;;;5039999;28;19913;-81
2022/09/22 11:36:00;;;;;;;;;;;23.10;61.00;;;;;;5040318;28;20003;-81
2022/09/22 11:38:48;;;;;;;;;;;22.90;63.00;;;;;;4999827;28;19968;-80
2022/09/22 11:41:17;;;;;;;;;;;23.00;63.10;;;;;;4992202;28;19913;-80
2022/09/22 11:44:00;;;;;;;;;;;22.90;63.70;;;;;;5000373;28;19917;-80
2022/09/22 11:46:36;;;;;;;;;;;22.80;62.60;;;;;;5018285;28;20348;-81
2022/09/22 11:49:20;;;;;;;;;;;22.60;61.00;;;;;;5020529;28;19971;-81
2022/09/22 11:51:55;;;;;;;;;;;22.50;61.60;;;;;;5035693;28;19925;-79
2022/09/22 11:54:24;;;;;;;;;;;22.40;63.30;;;;;;5040002;28;19943;-81
2022/09/22 11:56:55;;;;;;;;;;;22.50;63.30;;;;;;5039904;28;19917;-80
2022/09/22 11:59:36;;;;;;;;;;;22.50;63.40;;;;;;5040270;28;19912;-80
2022/09/22 12:02:08;;;;;;;;;;;22.60;64.30;;;;;;5041620;28;20382;-81
2022/09/22 12:04:40;;;;;;;;;;;22.50;63.00;;;;;;5043994;28;20443;-80
2022/09/22 12:07:15;;;;;;;;;;;22.70;64.10;;;;;;5043798;28;19915;-80
2022/09/22 12:09:44;;;;;;;;;;;22.70;63.30;;;;;;5059748;28;19924;-81
2022/09/22 12:12:14;;;;;;;;;;;22.70;63.80;;;;;;5066718;28;19947;-81
2022/09/22 12:14:41;;;;;;;;;;;22.70;63.00;;;;;;5066932;28;19920;-81
2022/09/22 12:17:11;;;;;;;;;;;22.40;62.00;;;;;;5066818;28;19912;-81
2022/09/22 12:19:47;;;;;;;;;;;22.20;62.40;;;;;;5067167;28;19976;-81
2022/09/22 12:22:18;;;;;;;;;;;22.20;62.40;;;;;;5063184;28;19912;-81
2022/09/22 12:24:44;;;;;;;;;;;22.40;62.50;;;;;;5061921;28;19921;-81
2022/09/22 12:27:11;;;;;;;;;;;22.60;62.80;;;;;;5077502;28;19931;-80
2022/09/22 12:29:37;;;;;;;;;;;22.50;62.20;;;;;;5083204;28;19920;-80
2022/09/22 12:32:03;;;;;;;;;;;22.30;64.00;;;;;;5068408;28;19939;-81
2022/09/22 12:34:33;;;;;;;;;;;22.40;63.60;;;;;;5071307;28;20212;-80
2022/09/22 12:37:08;;;;;;;;;;;22.20;64.60;;;;;;5066191;28;19920;-80
2022/09/22 12:39:37;;;;;;;;;;;22.10;64.10;;;;;;5065212;28;20817;-79
2022/09/22 12:42:16;;;;;;;;;;;22.10;64.20;;;;;;5077228;28;19947;-81
2022/09/22 12:44:48;;;;;;;;;;;22.40;65.70;;;;;;5081452;28;19968;-80
2022/09/22 12:47:29;;;;;;;;;;;22.50;64.60;;;;;;5099270;27;19924;-78
2022/09/22 12:49:58;;;;;;;;;;;22.50;63.90;;;;;;5066659;28;19920;-80
2022/09/22 12:52:39;;;;;;;;;;;22.20;63.20;;;;;;5067866;28;19916;-80
2022/09/22 12:55:15;;;;;;;;;;;22.20;62.10;;;;;;5086319;28;19964;-81
2022/09/22 12:57:50;;;;;;;;;;;22.10;62.50;;;;;;5079668;28;19919;-79
2022/09/22 13:00:19;;;;;;;;;;;22.10;63.80;;;;;;5076595;28;20333;-80
2022/09/22 13:02:46;;;;;;;;;;;22.00;63.00;;;;;;5086779;28;20661;-79
2022/09/22 13:05:23;;;;;;;;;;;22.10;63.10;;;;;;5067555;28;20008;-80
2022/09/22 13:07:49;;;;;;;;;;;22.00;62.90;;;;;;5066048;28;19920;-78
2022/09/22 13:10:24;;;;;;;;;;;22.60;61.90;;;;;;5066189;28;19913;-79
2022/09/22 13:13:02;;;;;;;;;;;22.20;61.90;;;;;;5065630;28;19912;-80
2022/09/22 13:15:53;;;;;;;;;;;22.10;61.40;;;;;;5065777;28;19928;-79
2022/09/22 13:18:37;;;;;;;;;;;22.00;61.40;;;;;;5061530;28;19917;-79
2022/09/22 13:21:12;;;;;;;;;;;22.10;63.00;;;;;;5077413;28;20595;-79
2022/09/22 13:23:49;;;;;;;;;;;22.00;64.00;;;;;;5067597;28;19916;-79
2022/09/22 13:26:16;;;;;;;;;;;22.20;62.40;;;;;;5076446;28;20003;-79
2022/09/22 13:28:42;;;;;;;;;;;22.20;62.00;;;;;;5075981;28;20027;-80
2022/09/22 13:31:07;;;;;;;;;;;22.10;61.20;;;;;;5075881;28;20022;-80
2022/09/22 13:33:34;;;;;;;;;;;22.00;62.40;;;;;;5066778;28;20472;-80
2022/09/22 13:36:11;;;;;;;;;;;22.00;61.10;;;;;;5066643;28;19920;-80
2022/09/22 13:38:39;;;;;;;;;;;22.00;62.10;;;;;;5066508;28;20122;-80
2022/09/22 13:41:09;;;;;;;;;;;21.90;60.60;;;;;;5075048;28;20436;-79
2022/09/22 13:43:36;;;;;;;;;;;21.90;61.10;;;;;;5081514;28;19916;-79
2022/09/22 13:46:03;;;;;;;;;;;22.00;62.00;;;;;;5071304;28;20359;-79
2022/09/22 13:48:32;;;;;;;;;;;22.20;61.90;;;;;;5066051;28;20442;-79
2022/09/22 13:51:00;;;;;;;;;;;22.10;62.00;;;;;;5068816;28;19912;-79
2022/09/22 13:53:25;;;;;;;;;;;22.10;62.00;;;;;;5078113;28;20449;-78
2022/09/22 13:55:52;;;;;;;;;;;21.90;60.90;;;;;;5053108;28;19917;-79
2022/09/22 13:58:20;;;;;;;;;;;21.90;60.80;;;;;;5084859;28;19951;-80
2022/09/22 14:00:47;;;;;;;;;;;22.00;61.20;;;;;;5082586;28;19931;-81
2022/09/22 14:03:20;;;;;;;;;;;22.00;60.30;;;;;;5048720;28;20507;-80
2022/09/22 14:05:46;;;;;;;;;;;22.10;61.00;;;;;;5064631;28;19924;-80
2022/09/22 14:08:18;;;;;;;;;;;22.10;61.30;;;;;;5068884;28;19908;-77
2022/09/22 14:10:43;;;;;;;;;;;22.50;60.30;;;;;;5066006;28;19966;-78
2022/09/22 14:13:28;;;;;;;;;;;22.30;59.10;;;;;;5066652;28;20379;-77
2022/09/22 14:15:53;;;;;;;;;;;22.40;61.10;;;;;;5064877;28;19925;-77
2022/09/22 14:18:24;;;;;;;;;;;22.10;59.60;;;;;;5074572;28;19923;-78
2022/09/22 14:20:51;;;;;;;;;;;21.90;60.30;;;;;;5068178;28;19920;-78
2022/09/22 14:23:27;;;;;;;;;;;21.90;60.30;;;;;;5084052;28;20452;-78
2022/09/22 14:25:53;;;;;;;;;;;21.90;60.60;;;;;;5081009;28;19923;-77
2022/09/22 14:28:21;;;;;;;;;;;22.00;61.20;;;;;;5068150;28;20653;-80
2022/09/22 14:30:46;;;;;;;;;;;22.00;60.70;;;;;;5073618;28;19922;-79
2022/09/22 14:33:14;;;;;;;;;;;21.80;59.10;;;;;;5077342;28;19916;-78
2022/09/22 14:35:40;;;;;;;;;;;21.80;61.30;;;;;;5063276;28;19931;-78
2022/09/22 14:38:07;;;;;;;;;;;21.90;61.10;;;;;;5063253;28;20005;-78
2022/09/22 14:40:32;;;;;;;;;;;22.10;61.30;;;;;;5045910;28;20376;-78
2022/09/22 14:43:08;;;;;;;;;;;22.20;60.30;;;;;;5063269;28;19912;-78
2022/09/22 14:45:37;;;;;;;;;;;22.00;60.00;;;;;;5063406;28;19957;-78
2022/09/22 14:48:12;;;;;;;;;;;22.10;60.20;;;;;;5064247;28;20007;-78
2022/09/22 14:50:51;;;;;;;;;;;22.00;59.50;;;;;;5063959;28;19912;-78